Time,TemperatureF,DewpointF,PressureIn,WindDirection,WindDirectionDegrees,WindSpeedMPH,WindSpeedGustMPH,Humidity,HourlyPrecipIn,Conditions,Clouds,dailyrainin,SoftwareType,DateUTC
2013-01-13 00:12:00,37.7,35.0,29.88,WSW,253,11.0,15.0,89,0.00,,,0.00,weatherlink.com 1.10,2013-01-13 07:12:00,
2013-01-13 00:27:00,37.5,34.0,29.91,WNW,301,6.0,15.0,88,0.00,,,0.00,weatherlink.com 1.10,2013-01-13 07:27:00,
2013-01-13 00:42:00,37.1,34.0,29.89,NW,307,8.0,13.0,88,0.00,,,0.00,weatherlink.com 1.10,2013-01-13 07:42:00,
2013-01-13 00:58:00,37.0,34.0,29.93,WNW,300,7.0,14.0,88,0.00,,,0.00,weatherlink.com 1.10,2013-01-13 07:58:00,
2013-01-13 01:13:00,36.8,34.0,29.94,WNW,296,8.0,17.0,88,0.00,,,0.00,weatherlink.com 1.10,2013-01-13 08:13:00,
2013-01-13 01:28:00,36.7,33.0,29.95,WNW,302,9.0,26.0,87,0.00,,,0.00,weatherlink.com 1.10,2013-01-13 08:28:00,
2013-01-13 01:43:00,36.7,34.0,29.95,WNW,298,10.0,18.0,88,0.00,,,0.00,weatherlink.com 1.10,2013-01-13 08:43:00,
2013-01-13 01:58:00,36.6,33.0,29.95,WNW,285,9.0,16.0,87,0.00,,,0.00,weatherlink.com 1.10,2013-01-13 08:58:00,
2013-01-13 02:13:00,36.1,32.0,29.97,West,281,8.0,14.0,86,0.00,,,0.00,weatherlink.com 1.10,2013-01-13 09:13:00,
2013-01-13 02:28:00,35.9,32.0,29.98,NW,304,10.0,15.0,87,0.00,,,0.00,weatherlink.com 1.10,2013-01-13 09:28:00,
2013-01-13 02:43:00,35.5,31.0,29.96,WNW,298,8.0,20.0,85,0.00,,,0.00,weatherlink.com 1.10,2013-01-13 09:43:00,
2013-01-13 02:58:00,35.3,31.0,29.95,WNW,293,4.0,25.0,84,0.00,,,0.00,weatherlink.com 1.10,2013-01-13 09:58:00,
2013-01-13 03:13:00,35.2,31.0,29.94,NW,312,11.0,23.0,84,0.00,,,0.00,weatherlink.com 1.10,2013-01-13 10:13:00,
2013-01-13 03:28:00,35.5,32.0,29.97,NW,308,5.0,16.0,86,0.00,,,0.00,weatherlink.com 1.10,2013-01-13 10:28:00,
2013-01-13 03:43:00,34.9,31.0,29.96,NW,314,7.0,20.0,84,0.00,,,0.00,weatherlink.com 1.10,2013-01-13 10:43:00,
2013-01-13 03:58:00,35.0,31.0,29.98,NW,304,9.0,17.0,86,0.00,,,0.00,weatherlink.com 1.10,2013-01-13 10:58:00,
2013-01-13 04:13:00,34.7,31.0,29.98,WNW,302,8.0,21.0,85,0.00,,,0.00,weatherlink.com 1.10,2013-01-13 11:13:00,
2013-01-13 04:28:00,34.1,30.0,29.96,NW,323,10.0,24.0,86,0.00,,,0.00,weatherlink.com 1.10,2013-01-13 11:28:00,
2013-01-13 04:43:00,33.8,30.0,30.02,WNW,296,8.0,14.0,85,0.00,,,0.00,weatherlink.com 1.10,2013-01-13 11:43:00,
2013-01-13 04:58:00,33.8,30.0,30.01,WNW,302,9.0,17.0,85,0.00,,,0.00,weatherlink.com 1.10,2013-01-13 11:58:00,
2013-01-13 05:13:00,33.6,30.0,30.03,NW,321,6.0,16.0,85,0.00,,,0.00,weatherlink.com 1.10,2013-01-13 12:13:00,
2013-01-13 05:28:00,33.9,30.0,30.05,NW,311,4.0,13.0,86,0.00,,,0.00,weatherlink.com 1.10,2013-01-13 12:28:00,
2013-01-13 05:43:00,33.7,29.0,30.05,WNW,298,5.0,20.0,83,0.00,,,0.00,weatherlink.com 1.10,2013-01-13 12:43:00,
2013-01-13 05:58:00,33.6,29.0,30.06,WNW,295,8.0,18.0,83,0.00,,,0.00,weatherlink.com 1.10,2013-01-13 12:58:00,
2013-01-13 06:13:00,33.4,29.0,30.07,WNW,302,4.0,12.0,83,0.00,,,0.00,weatherlink.com 1.10,2013-01-13 13:13:00,
2013-01-13 06:28:00,33.7,29.0,30.09,NNW,330,6.0,15.0,84,0.00,,,0.00,weatherlink.com 1.10,2013-01-13 13:28:00,
2013-01-13 06:43:00,33.7,29.0,30.08,WNW,301,11.0,18.0,84,0.00,,,0.00,weatherlink.com 1.10,2013-01-13 13:43:00,
2013-01-13 06:59:00,33.3,28.0,30.11,WNW,301,5.0,18.0,82,0.00,,,0.00,weatherlink.com 1.10,2013-01-13 13:59:00,
2013-01-13 07:14:00,33.2,28.0,30.11,NW,314,5.0,16.0,82,0.00,,,0.00,weatherlink.com 1.10,2013-01-13 14:14:00,
2013-01-13 07:29:00,33.5,29.0,30.11,NNE,20,9.0,15.0,84,0.00,,,0.00,weatherlink.com 1.10,2013-01-13 14:29:00,
2013-01-13 07:44:00,33.2,28.0,30.12,WNW,295,5.0,18.0,82,0.00,,,0.00,weatherlink.com 1.10,2013-01-13 14:44:00,
2013-01-13 07:59:00,33.4,29.0,30.13,WNW,300,7.0,15.0,83,0.00,,,0.00,weatherlink.com 1.10,2013-01-13 14:59:00,
2013-01-13 08:14:00,33.3,28.0,30.14,WNW,301,7.0,19.0,81,0.00,,,0.00,weatherlink.com 1.10,2013-01-13 15:14:00,
2013-01-13 08:29:00,33.5,29.0,30.14,WNW,287,8.0,19.0,82,0.00,,,0.00,weatherlink.com 1.10,2013-01-13 15:29:00,
2013-01-13 08:44:00,34.3,29.0,30.15,WNW,298,10.0,17.0,82,0.00,,,0.00,weatherlink.com 1.10,2013-01-13 15:44:00,
2013-01-13 08:59:00,34.9,30.0,30.17,WNW,303,10.0,20.0,81,0.00,,,0.00,weatherlink.com 1.10,2013-01-13 15:59:00,
2013-01-13 09:14:00,35.2,30.0,30.17,WNW,301,9.0,20.0,82,0.00,,,0.00,weatherlink.com 1.10,2013-01-13 16:14:00,
2013-01-13 09:29:00,35.9,29.0,30.17,WNW,299,9.0,16.0,76,0.00,,,0.00,weatherlink.com 1.10,2013-01-13 16:29:00,
2013-01-13 09:44:00,36.5,30.0,30.16,WNW,290,7.0,19.0,77,0.00,,,0.00,weatherlink.com 1.10,2013-01-13 16:44:00,
2013-01-13 09:59:00,37.1,30.0,30.17,WNW,300,8.0,19.0,76,0.00,,,0.00,weatherlink.com 1.10,2013-01-13 16:59:00,
2013-01-13 10:14:00,37.8,31.0,30.17,NNW,338,9.0,22.0,75,0.00,,,0.00,weatherlink.com 1.10,2013-01-13 17:14:00,
2013-01-13 10:29:00,37.9,31.0,30.16,WNW,300,8.0,14.0,75,0.00,,,0.00,weatherlink.com 1.10,2013-01-13 17:29:00,
2013-01-13 10:44:00,38.3,30.0,30.16,WNW,297,4.0,13.0,73,0.00,,,0.00,weatherlink.com 1.10,2013-01-13 17:44:00,
2013-01-13 10:59:00,38.5,30.0,30.17,NW,307,7.0,19.0,72,0.00,,,0.00,weatherlink.com 1.10,2013-01-13 17:59:00,
2013-01-13 11:14:00,38.9,31.0,30.16,WNW,296,6.0,15.0,73,0.00,,,0.00,weatherlink.com 1.10,2013-01-13 18:14:00,
2013-01-13 11:29:00,39.4,30.0,30.15,NW,309,6.0,12.0,70,0.00,,,0.00,weatherlink.com 1.10,2013-01-13 18:29:00,
2013-01-13 11:44:00,40.0,32.0,30.14,WNW,295,4.0,17.0,72,0.00,,,0.00,weatherlink.com 1.10,2013-01-13 18:44:00,
2013-01-13 11:59:00,40.3,32.0,30.14,NW,308,8.0,16.0,72,0.00,,,0.00,weatherlink.com 1.10,2013-01-13 18:59:00,
2013-01-13 12:14:00,40.9,33.0,30.14,WNW,295,7.0,16.0,73,0.00,,,0.00,weatherlink.com 1.10,2013-01-13 19:14:00,
2013-01-13 12:29:00,41.4,34.0,30.14,NW,304,4.0,14.0,74,0.00,,,0.00,weatherlink.com 1.10,2013-01-13 19:29:00,
2013-01-13 12:44:00,41.7,33.0,30.14,WNW,300,7.0,13.0,70,0.00,,,0.00,weatherlink.com 1.10,2013-01-13 19:44:00,
2013-01-13 12:59:00,42.0,32.0,30.14,WNW,300,5.0,13.0,68,0.00,,,0.00,weatherlink.com 1.10,2013-01-13 19:59:00,
2013-01-13 13:14:00,42.5,33.0,30.14,WNW,302,5.0,13.0,69,0.00,,,0.00,weatherlink.com 1.10,2013-01-13 20:14:00,
2013-01-13 13:29:00,43.1,34.0,30.14,WNW,300,7.0,11.0,71,0.00,,,0.00,weatherlink.com 1.10,2013-01-13 20:29:00,
2013-01-13 13:45:00,43.2,33.0,30.14,WNW,293,7.0,13.0,67,0.00,,,0.00,weatherlink.com 1.10,2013-01-13 20:45:00,
2013-01-13 14:00:00,43.5,32.0,30.13,NW,307,6.0,14.0,65,0.00,,,0.00,weatherlink.com 1.10,2013-01-13 21:00:00,
2013-01-13 14:15:00,44.0,33.0,30.13,WNW,290,6.0,13.0,65,0.00,,,0.00,weatherlink.com 1.10,2013-01-13 21:15:00,
2013-01-13 14:30:00,43.9,32.0,30.14,WNW,298,8.0,15.0,64,0.00,,,0.00,weatherlink.com 1.10,2013-01-13 21:30:00,
2013-01-13 14:45:00,44.3,31.0,30.15,NW,304,8.0,14.0,61,0.00,,,0.00,weatherlink.com 1.10,2013-01-13 21:45:00,
2013-01-13 15:00:00,44.2,31.0,30.15,WNW,300,4.0,12.0,61,0.00,,,0.00,weatherlink.com 1.10,2013-01-13 22:00:00,
2013-01-13 15:15:00,43.7,32.0,30.15,NNE,25,2.0,15.0,63,0.00,,,0.00,weatherlink.com 1.10,2013-01-13 22:15:00,
2013-01-13 15:31:00,43.3,29.0,30.15,NNW,338,5.0,16.0,58,0.00,,,0.00,weatherlink.com 1.10,2013-01-13 22:31:00,
2013-01-13 15:45:00,42.6,30.0,30.15,WNW,283,6.0,12.0,61,0.00,,,0.00,weatherlink.com 1.10,2013-01-13 22:45:00,
2013-01-13 16:00:00,42.0,29.0,30.17,NW,321,2.0,15.0,61,0.00,,,0.00,weatherlink.com 1.10,2013-01-13 23:00:00,
2013-01-13 16:15:00,41.4,28.0,30.17,NNW,343,1.0,13.0,59,0.00,,,0.00,weatherlink.com 1.10,2013-01-13 23:15:00,
2013-01-13 16:30:00,40.6,29.0,30.18,WNW,300,5.0,11.0,63,0.00,,,0.00,weatherlink.com 1.10,2013-01-13 23:30:00,
2013-01-13 16:45:00,39.2,27.0,30.18,NW,323,3.0,14.0,62,0.00,,,0.00,weatherlink.com 1.10,2013-01-13 23:45:00,
2013-01-13 17:00:00,38.6,27.0,30.18,NNW,332,8.0,14.0,64,0.00,,,0.00,weatherlink.com 1.10,2013-01-14 00:00:00,
2013-01-13 17:15:00,38.0,27.0,30.18,WNW,294,4.0,14.0,65,0.00,,,0.00,weatherlink.com 1.10,2013-01-14 00:15:00,
2013-01-13 17:30:00,37.4,27.0,30.19,NW,323,4.0,12.0,65,0.00,,,0.00,weatherlink.com 1.10,2013-01-14 00:30:00,
2013-01-13 17:45:00,36.7,26.0,30.20,NW,322,3.0,6.0,66,0.00,,,0.00,weatherlink.com 1.10,2013-01-14 00:45:00,
2013-01-13 18:00:00,36.1,26.0,30.20,NNW,333,0.0,6.0,68,0.00,,,0.00,weatherlink.com 1.10,2013-01-14 01:00:00,
2013-01-13 18:15:00,35.3,26.0,30.20,NW,319,7.0,11.0,69,0.00,,,0.00,weatherlink.com 1.10,2013-01-14 01:15:00,
2013-01-13 18:30:00,35.1,26.0,30.21,NNW,336,6.0,12.0,70,0.00,,,0.00,weatherlink.com 1.10,2013-01-14 01:30:00,
2013-01-13 18:45:00,35.0,26.0,30.21,NW,316,8.0,10.0,69,0.00,,,0.00,weatherlink.com 1.10,2013-01-14 01:45:00,
2013-01-13 19:00:00,34.7,25.0,30.21,NNW,329,5.0,16.0,69,0.00,,,0.00,weatherlink.com 1.10,2013-01-14 02:00:00,
2013-01-13 19:15:00,34.4,26.0,30.21,NW,315,4.0,9.0,70,0.00,,,0.00,weatherlink.com 1.10,2013-01-14 02:15:00,
2013-01-13 19:30:00,33.8,25.0,30.20,NNW,342,3.0,8.0,71,0.00,,,0.00,weatherlink.com 1.10,2013-01-14 02:30:00,
2013-01-13 19:45:00,33.2,25.0,30.21,NW,318,5.0,7.0,72,0.00,,,0.00,weatherlink.com 1.10,2013-01-14 02:45:00,
2013-01-13 20:00:00,32.9,25.0,30.21,NW,319,4.0,11.0,73,0.00,,,0.00,weatherlink.com 1.10,2013-01-14 03:00:00,
2013-01-13 20:15:00,32.8,25.0,30.22,NW,319,5.0,14.0,73,0.00,,,0.00,weatherlink.com 1.10,2013-01-14 03:15:00,
2013-01-13 20:30:00,32.3,24.0,30.21,NW,315,6.0,13.0,72,0.00,,,0.00,weatherlink.com 1.10,2013-01-14 03:30:00,
2013-01-13 20:45:00,32.1,24.0,30.22,NW,305,2.0,16.0,72,0.00,,,0.00,weatherlink.com 1.10,2013-01-14 03:45:00,
2013-01-13 21:00:00,31.9,24.0,30.22,NW,316,7.0,12.0,73,0.00,,,0.00,weatherlink.com 1.10,2013-01-14 04:00:00,
2013-01-13 21:15:00,31.6,24.0,30.22,NNW,347,0.0,18.0,73,0.00,,,0.00,weatherlink.com 1.10,2013-01-14 04:15:00,
2013-01-13 21:30:00,31.3,23.0,30.23,WNW,302,5.0,17.0,72,0.00,,,0.00,weatherlink.com 1.10,2013-01-14 04:30:00,
2013-01-13 21:45:00,30.9,23.0,30.24,NW,314,7.0,13.0,72,0.00,,,0.00,weatherlink.com 1.10,2013-01-14 04:45:00,
2013-01-13 22:00:00,30.6,23.0,30.25,NNW,342,4.0,19.0,73,0.00,,,0.00,weatherlink.com 1.10,2013-01-14 05:00:00,
2013-01-13 22:15:00,30.3,23.0,30.25,NW,319,2.0,14.0,74,0.00,,,0.00,weatherlink.com 1.10,2013-01-14 05:15:00,
2013-01-13 22:30:00,30.0,23.0,30.25,NNW,338,0.0,12.0,74,0.00,,,0.00,weatherlink.com 1.10,2013-01-14 05:30:00,
2013-01-13 22:46:00,29.7,22.0,30.25,NW,323,7.0,12.0,74,0.00,,,0.00,weatherlink.com 1.10,2013-01-14 05:46:00,
2013-01-13 23:00:00,29.4,22.0,30.26,NNE,25,0.0,15.0,74,0.00,,,0.00,weatherlink.com 1.10,2013-01-14 06:00:00,
2013-01-13 23:16:00,29.2,22.0,30.26,North,6,2.0,16.0,74,0.00,,,0.00,weatherlink.com 1.10,2013-01-14 06:16:00,
2013-01-13 23:31:00,29.1,22.0,30.25,NNW,338,6.0,17.0,75,0.00,,,0.00,weatherlink.com 1.10,2013-01-14 06:31:00,
2013-01-13 23:46:00,29.0,22.0,30.25,North,354,8.0,14.0,75,0.00,,,0.00,weatherlink.com 1.10,2013-01-14 06:46:00,